sensor_id;sensor_type;location;lat;lon;timestamp;pressure;altitude;pressure_sealevel;temperature;humidity
5609;BME280;2826;51.354;9.588;2023-04-15T00:01:34;97321.28;;;9.15;71.92
5609;BME280;2826;51.354;9.588;2023-04-15T00:04:02;97320.44;;;9.14;72.10
5609;BME280;2826;51.354;9.588;2023-04-15T00:06:29;97322.94;;;9.16;71.88
5609;BME280;2826;51.354;9.588;2023-04-15T00:08:56;97317.84;;;9.14;72.08
5609;BME280;2826;51.354;9.588;2023-04-15T00:11:23;97316.19;;;9.13;71.99
5609;BME280;2826;51.354;9.588;2023-04-15T00:13:50;97313.66;;;9.12;72.16
5609;BME280;2826;51.354;9.588;2023-04-15T00:16:17;97322.34;;;9.11;72.00
5609;BME280;2826;51.354;9.588;2023-04-15T00:18:44;97326.75;;;9.09;73.13
5609;BME280;2826;51.354;9.588;2023-04-15T00:21:11;97319.34;;;9.01;73.26
5609;BME280;2826;51.354;9.588;2023-04-15T00:23:38;97315.16;;;8.98;73.24
5609;BME280;2826;51.354;9.588;2023-04-15T00:26:05;97312.84;;;8.92;73.39
5609;BME280;2826;51.354;9.588;2023-04-15T00:28:34;97306.78;;;8.93;73.44
5609;BME280;2826;51.354;9.588;2023-04-15T00:31:02;97309.34;;;8.93;73.38
5609;BME280;2826;51.354;9.588;2023-04-15T00:33:29;97307.63;;;8.94;73.74
5609;BME280;2826;51.354;9.588;2023-04-15T00:35:58;97304.19;;;8.93;73.51
5609;BME280;2826;51.354;9.588;2023-04-15T00:38:26;97306.03;;;8.91;73.86
5609;BME280;2826;51.354;9.588;2023-04-15T00:40:53;97302.66;;;8.89;73.86
5609;BME280;2826;51.354;9.588;2023-04-15T00:43:22;97305.41;;;8.86;74.04
5609;BME280;2826;51.354;9.588;2023-04-15T00:45:51;97297.72;;;8.84;74.37
5609;BME280;2826;51.354;9.588;2023-04-15T00:48:19;97295.94;;;8.85;73.95
5609;BME280;2826;51.354;9.588;2023-04-15T00:50:46;97306.28;;;8.85;74.42
5609;BME280;2826;51.354;9.588;2023-04-15T00:53:15;97305.53;;;8.83;74.34
5609;BME280;2826;51.354;9.588;2023-04-15T00:55:43;97305.72;;;8.78;74.59
5609;BME280;2826;51.354;9.588;2023-04-15T00:58:10;97304.13;;;8.75;74.72
5609;BME280;2826;51.354;9.588;2023-04-15T01:00:37;97310.16;;;8.76;74.39
5609;BME280;2826;51.354;9.588;2023-04-15T01:03:05;97312.88;;;8.73;74.59
5609;BME280;2826;51.354;9.588;2023-04-15T01:05:33;97300.19;;;8.68;74.59
5609;BME280;2826;51.354;9.588;2023-04-15T01:08:00;97300.38;;;8.63;74.66
5609;BME280;2826;51.354;9.588;2023-04-15T01:10:28;97298.91;;;8.58;74.97
5609;BME280;2826;51.354;9.588;2023-04-15T01:12:57;97300.66;;;8.57;75.04
5609;BME280;2826;51.354;9.588;2023-04-15T01:15:25;97299.88;;;8.55;74.63
5609;BME280;2826;51.354;9.588;2023-04-15T01:17:53;97295.78;;;8.49;74.85
5609;BME280;2826;51.354;9.588;2023-04-15T01:20:20;97290.72;;;8.48;74.87
5609;BME280;2826;51.354;9.588;2023-04-15T01:22:49;97295.88;;;8.48;75.15
5609;BME280;2826;51.354;9.588;2023-04-15T01:27:47;97295.16;;;8.44;75.30
5609;BME280;2826;51.354;9.588;2023-04-15T01:30:15;97292.50;;;8.46;75.24
5609;BME280;2826;51.354;9.588;2023-04-15T01:32:42;97289.94;;;8.46;75.21
5609;BME280;2826;51.354;9.588;2023-04-15T01:35:09;97285.81;;;8.42;75.06
5609;BME280;2826;51.354;9.588;2023-04-15T01:37:36;97293.38;;;8.46;75.56
5609;BME280;2826;51.354;9.588;2023-04-15T01:40:04;97258.97;;;8.25;75.26
5609;BME280;2826;51.354;9.588;2023-04-15T01:42:31;97281.19;;;8.48;75.38
5609;BME280;2826;51.354;9.588;2023-04-15T01:44:59;97285.56;;;8.48;75.33
5609;BME280;2826;51.354;9.588;2023-04-15T01:47:26;97280.38;;;8.48;75.30
5609;BME280;2826;51.354;9.588;2023-04-15T01:49:53;97287.22;;;8.49;75.62
5609;BME280;2826;51.354;9.588;2023-04-15T01:52:21;97287.16;;;8.50;75.64
5609;BME280;2826;51.354;9.588;2023-04-15T01:54:48;97274.50;;;8.44;75.69
5609;BME280;2826;51.354;9.588;2023-04-15T01:57:18;97280.19;;;8.53;75.47
5609;BME280;2826;51.354;9.588;2023-04-15T01:59:45;97281.91;;;8.52;75.64
5609;BME280;2826;51.354;9.588;2023-04-15T02:02:13;97279.00;;;8.60;75.31
5609;BME280;2826;51.354;9.588;2023-04-15T02:04:40;97277.63;;;8.51;75.32
5609;BME280;2826;51.354;9.588;2023-04-15T02:07:07;97277.81;;;8.48;75.39
5609;BME280;2826;51.354;9.588;2023-04-15T02:09:34;97289.25;;;8.42;75.62
5609;BME280;2826;51.354;9.588;2023-04-15T02:12:01;97284.34;;;8.36;76.08
5609;BME280;2826;51.354;9.588;2023-04-15T02:14:28;97279.16;;;8.36;76.18
5609;BME280;2826;51.354;9.588;2023-04-15T02:16:55;97276.69;;;8.34;75.83
5609;BME280;2826;51.354;9.588;2023-04-15T02:19:23;97278.47;;;8.32;75.93
5609;BME280;2826;51.354;9.588;2023-04-15T02:21:51;97234.22;;;8.02;76.09
5609;BME280;2826;51.354;9.588;2023-04-15T02:24:18;97274.34;;;8.28;76.20
5609;BME280;2826;51.354;9.588;2023-04-15T02:26:44;97272.75;;;8.26;76.45
5609;BME280;2826;51.354;9.588;2023-04-15T02:29:12;97277.16;;;8.23;76.58
5609;BME280;2826;51.354;9.588;2023-04-15T02:31:39;97271.22;;;8.21;76.64
5609;BME280;2826;51.354;9.588;2023-04-15T02:34:07;97279.94;;;8.19;76.64
5609;BME280;2826;51.354;9.588;2023-04-15T02:36:34;97276.09;;;8.08;77.38
5609;BME280;2826;51.354;9.588;2023-04-15T02:39:01;97282.28;;;8.04;77.79
5609;BME280;2826;51.354;9.588;2023-04-15T02:41:28;97281.38;;;8.05;77.80
5609;BME280;2826;51.354;9.588;2023-04-15T02:43:56;97280.88;;;7.97;77.98
5609;BME280;2826;51.354;9.588;2023-04-15T02:46:24;97292.75;;;8.01;77.97
5609;BME280;2826;51.354;9.588;2023-04-15T02:48:51;97296.13;;;8.03;77.96
5609;BME280;2826;51.354;9.588;2023-04-15T02:51:20;97306.69;;;7.97;78.34
5609;BME280;2826;51.354;9.588;2023-04-15T02:53:49;97292.38;;;7.90;78.24
5609;BME280;2826;51.354;9.588;2023-04-15T02:56:16;97299.22;;;7.91;79.38
5609;BME280;2826;51.354;9.588;2023-04-15T02:58:45;97294.19;;;7.88;79.88
5609;BME280;2826;51.354;9.588;2023-04-15T03:01:12;97298.44;;;7.89;80.18
5609;BME280;2826;51.354;9.588;2023-04-15T03:03:40;97287.47;;;7.83;80.48
5609;BME280;2826;51.354;9.588;2023-04-15T03:06:07;97287.59;;;7.80;80.61
5609;BME280;2826;51.354;9.588;2023-04-15T03:08:34;97284.38;;;7.75;81.09
5609;BME280;2826;51.354;9.588;2023-04-15T03:11:02;97294.06;;;7.70;81.27
5609;BME280;2826;51.354;9.588;2023-04-15T03:13:31;97288.88;;;7.70;81.39
5609;BME280;2826;51.354;9.588;2023-04-15T03:16:02;97286.44;;;7.67;81.54
5609;BME280;2826;51.354;9.588;2023-04-15T03:18:32;97283.78;;;7.68;82.12
5609;BME280;2826;51.354;9.588;2023-04-15T03:21:01;97291.81;;;7.62;82.50
5609;BME280;2826;51.354;9.588;2023-04-15T03:23:30;97292.31;;;7.70;83.10
5609;BME280;2826;51.354;9.588;2023-04-15T03:26:00;97286.94;;;7.75;83.08
5609;BME280;2826;51.354;9.588;2023-04-15T03:28:29;97285.81;;;7.82;82.91
5609;BME280;2826;51.354;9.588;2023-04-15T03:30:58;97284.06;;;7.83;83.28
5609;BME280;2826;51.354;9.588;2023-04-15T03:33:26;97280.56;;;7.84;83.30
5609;BME280;2826;51.354;9.588;2023-04-15T03:35:53;97282.44;;;7.80;83.87
5609;BME280;2826;51.354;9.588;2023-04-15T03:38:20;97285.00;;;7.80;83.89
5609;BME280;2826;51.354;9.588;2023-04-15T03:40:47;97290.72;;;7.68;84.71
5609;BME280;2826;51.354;9.588;2023-04-15T03:43:14;97281.53;;;7.81;84.64
5609;BME280;2826;51.354;9.588;2023-04-15T03:45:42;97286.94;;;7.75;84.57
5609;BME280;2826;51.354;9.588;2023-04-15T03:48:09;97284.38;;;7.75;85.27
5609;BME280;2826;51.354;9.588;2023-04-15T03:50:36;97284.13;;;7.81;84.83
5609;BME280;2826;51.354;9.588;2023-04-15T03:53:03;97286.88;;;7.77;85.30
5609;BME280;2826;51.354;9.588;2023-04-15T03:55:30;97286.09;;;7.95;84.50
5609;BME280;2826;51.354;9.588;2023-04-15T03:57:57;97298.31;;;7.92;84.44
5609;BME280;2826;51.354;9.588;2023-04-15T04:00:24;97298.53;;;8.06;83.64
5609;BME280;2826;51.354;9.588;2023-04-15T04:02:51;97297.22;;;7.97;83.66
5609;BME280;2826;51.354;9.588;2023-04-15T04:05:20;97297.91;;;8.01;83.59
5609;BME280;2826;51.354;9.588;2023-04-15T04:07:47;97293.66;;;8.00;83.26
5609;BME280;2826;51.354;9.588;2023-04-15T04:10:17;97296.47;;;7.94;83.63
5609;BME280;2826;51.354;9.588;2023-04-15T04:12:44;97297.53;;;7.90;83.60
5609;BME280;2826;51.354;9.588;2023-04-15T04:15:11;97296.47;;;7.94;83.52
5609;BME280;2826;51.354;9.588;2023-04-15T04:17:38;97286.94;;;7.96;83.12
5609;BME280;2826;51.354;9.588;2023-04-15T04:20:07;97280.94;;;7.95;82.96
5609;BME280;2826;51.354;9.588;2023-04-15T04:22:37;97291.47;;;7.91;83.26
5609;BME280;2826;51.354;9.588;2023-04-15T04:25:06;97286.44;;;7.88;83.31
5609;BME280;2826;51.354;9.588;2023-04-15T04:27:33;97288.09;;;7.89;83.32
5609;BME280;2826;51.354;9.588;2023-04-15T04:30:00;97291.59;;;7.88;83.42
5609;BME280;2826;51.354;9.588;2023-04-15T04:32:27;97301.16;;;7.86;83.35
5609;BME280;2826;51.354;9.588;2023-04-15T04:34:55;97291.47;;;7.91;83.04
5609;BME280;2826;51.354;9.588;2023-04-15T04:37:22;97290.56;;;7.92;83.03
5609;BME280;2826;51.354;9.588;2023-04-15T04:39:50;97292.38;;;7.90;83.18
5609;BME280;2826;51.354;9.588;2023-04-15T04:42:17;97291.47;;;7.91;83.34
5609;BME280;2826;51.354;9.588;2023-04-15T04:44:44;97299.22;;;7.91;83.26
5609;BME280;2826;51.354;9.588;2023-04-15T04:47:11;97304.38;;;7.91;83.23
5609;BME280;2826;51.354;9.588;2023-04-15T04:49:38;97288.25;;;7.86;83.67
5609;BME280;2826;51.354;9.588;2023-04-15T04:52:06;97301.66;;;7.94;83.36
5609;BME280;2826;51.354;9.588;2023-04-15T04:54:33;97297.41;;;7.93;83.38
5609;BME280;2826;51.354;9.588;2023-04-15T04:57:00;97291.41;;;7.92;83.27
5609;BME280;2826;51.354;9.588;2023-04-15T04:59:28;97303.53;;;7.90;83.46
5609;BME280;2826;51.354;9.588;2023-04-15T05:01:55;97297.47;;;7.91;83.40
5609;BME280;2826;51.354;9.588;2023-04-15T05:04:21;97295.59;;;7.95;83.46
5609;BME280;2826;51.354;9.588;2023-04-15T05:06:48;97296.56;;;7.92;83.11
5609;BME280;2826;51.354;9.588;2023-04-15T05:09:15;97298.88;;;7.98;82.99
5609;BME280;2826;51.354;9.588;2023-04-15T05:11:43;97296.63;;;7.91;83.09
5609;BME280;2826;51.354;9.588;2023-04-15T05:14:10;97303.41;;;7.93;83.13
5609;BME280;2826;51.354;9.588;2023-04-15T05:16:37;97289.94;;;7.87;83.18
5609;BME280;2826;51.354;9.588;2023-04-15T05:19:04;97302.50;;;7.94;83.16
5609;BME280;2826;51.354;9.588;2023-04-15T05:21:31;97307.38;;;8.01;83.23
5609;BME280;2826;51.354;9.588;2023-04-15T05:23:58;97306.28;;;8.06;82.97
5609;BME280;2826;51.354;9.588;2023-04-15T05:26:25;97301.84;;;8.10;82.65
5609;BME280;2826;51.354;9.588;2023-04-15T05:28:53;97308.63;;;8.13;82.59
5609;BME280;2826;51.354;9.588;2023-04-15T05:31:20;97302.66;;;8.10;82.34
5609;BME280;2826;51.354;9.588;2023-04-15T05:33:47;97308.63;;;8.13;82.45
5609;BME280;2826;51.354;9.588;2023-04-15T05:36:14;97307.72;;;8.14;81.94
5609;BME280;2826;51.354;9.588;2023-04-15T05:38:41;97304.34;;;8.11;82.09
5609;BME280;2826;51.354;9.588;2023-04-15T05:41:08;97282.53;;;7.98;82.15
5609;BME280;2826;51.354;9.588;2023-04-15T05:43:35;97306.59;;;8.19;82.12
5609;BME280;2826;51.354;9.588;2023-04-15T05:46:03;97310.91;;;8.19;82.26
5609;BME280;2826;51.354;9.588;2023-04-15T05:48:30;97310.84;;;8.20;82.09
5609;BME280;2826;51.354;9.588;2023-04-15T05:50:58;97304.78;;;8.21;82.22
5609;BME280;2826;51.354;9.588;2023-04-15T05:53:25;97308.41;;;8.17;82.58
5609;BME280;2826;51.354;9.588;2023-04-15T05:55:52;97320.16;;;8.24;82.44
5609;BME280;2826;51.354;9.588;2023-04-15T05:58:19;97317.91;;;8.17;82.94
5609;BME280;2826;51.354;9.588;2023-04-15T06:00:46;97327.50;;;8.13;83.04
5609;BME280;2826;51.354;9.588;2023-04-15T06:03:13;97319.13;;;8.08;83.71
5609;BME280;2826;51.354;9.588;2023-04-15T06:05:41;97328.63;;;8.07;84.15
5609;BME280;2826;51.354;9.588;2023-04-15T06:08:10;97324.41;;;8.05;84.41
5609;BME280;2826;51.354;9.588;2023-04-15T06:10:37;97330.63;;;8.01;84.88
5609;BME280;2826;51.354;9.588;2023-04-15T06:13:04;97327.09;;;8.03;85.19
5609;BME280;2826;51.354;9.588;2023-04-15T06:15:31;97331.41;;;8.03;85.21
5609;BME280;2826;51.354;9.588;2023-04-15T06:17:59;97331.47;;;8.01;85.73
5609;BME280;2826;51.354;9.588;2023-04-15T06:20:27;97323.84;;;7.98;85.59
5609;BME280;2826;51.354;9.588;2023-04-15T06:22:54;97330.50;;;8.04;85.80
5609;BME280;2826;51.354;9.588;2023-04-15T06:25:21;97326.19;;;8.04;85.67
5609;BME280;2826;51.354;9.588;2023-04-15T06:27:49;97327.09;;;8.03;86.14
5609;BME280;2826;51.354;9.588;2023-04-15T06:30:16;97331.47;;;8.01;86.48
5609;BME280;2826;51.354;9.588;2023-04-15T06:32:42;97327.84;;;8.05;86.84
5609;BME280;2826;51.354;9.588;2023-04-15T06:35:09;97304.56;;;7.86;86.59
5609;BME280;2826;51.354;9.588;2023-04-15T06:37:37;97320.69;;;7.91;86.80
5609;BME280;2826;51.354;9.588;2023-04-15T06:40:05;97337.78;;;7.94;87.46
5609;BME280;2826;51.354;9.588;2023-04-15T06:42:34;97340.13;;;8.00;87.51
5609;BME280;2826;51.354;9.588;2023-04-15T06:45:04;97340.88;;;8.02;87.30
5609;BME280;2826;51.354;9.588;2023-04-15T06:47:31;97331.97;;;8.09;87.46
5609;BME280;2826;51.354;9.588;2023-04-15T06:49:58;97335.47;;;8.08;87.43
5609;BME280;2826;51.354;9.588;2023-04-15T06:52:25;97338.69;;;8.14;87.29
5609;BME280;2826;51.354;9.588;2023-04-15T06:54:53;97335.59;;;8.05;87.76
5609;BME280;2826;51.354;9.588;2023-04-15T06:57:20;97337.91;;;8.11;87.65
5609;BME280;2826;51.354;9.588;2023-04-15T06:59:48;97330.03;;;8.15;87.78
5609;BME280;2826;51.354;9.588;2023-04-15T07:02:15;97334.22;;;8.17;87.86
5609;BME280;2826;51.354;9.588;2023-04-15T07:04:43;97339.38;;;8.17;87.81
5609;BME280;2826;51.354;9.588;2023-04-15T07:07:10;97341.47;;;8.09;88.10
5609;BME280;2826;51.354;9.588;2023-04-15T07:09:37;97334.63;;;8.08;88.50
5609;BME280;2826;51.354;9.588;2023-04-15T07:12:06;97327.97;;;8.02;88.61
5609;BME280;2826;51.354;9.588;2023-04-15T07:14:32;97331.41;;;8.03;88.86
5609;BME280;2826;51.354;9.588;2023-04-15T07:17:00;97330.63;;;8.01;89.34
5609;BME280;2826;51.354;9.588;2023-04-15T07:19:27;97339.03;;;8.06;89.17
5609;BME280;2826;51.354;9.588;2023-04-15T07:21:54;97342.66;;;8.02;89.40
5609;BME280;2826;51.354;9.588;2023-04-15T07:24:22;97338.25;;;8.04;89.40
5609;BME280;2826;51.354;9.588;2023-04-15T07:26:52;97334.06;;;8.01;89.76
5609;BME280;2826;51.354;9.588;2023-04-15T07:29:21;97336.34;;;8.07;89.66
5609;BME280;2826;51.354;9.588;2023-04-15T07:31:48;97335.59;;;8.05;89.77
5609;BME280;2826;51.354;9.588;2023-04-15T07:34:16;97302.44;;;7.96;89.37
5609;BME280;2826;51.354;9.588;2023-04-15T07:36:43;97334.00;;;8.03;89.52
5609;BME280;2826;51.354;9.588;2023-04-15T07:39:11;97335.19;;;8.15;89.63
5609;BME280;2826;51.354;9.588;2023-04-15T07:41:38;97331.97;;;8.09;89.54
5609;BME280;2826;51.354;9.588;2023-04-15T07:44:07;97336.22;;;8.10;89.42
5609;BME280;2826;51.354;9.588;2023-04-15T07:46:35;97333.47;;;8.15;89.73
5609;BME280;2826;51.354;9.588;2023-04-15T07:49:03;97331.53;;;8.20;89.42
5609;BME280;2826;51.354;9.588;2023-04-15T07:51:31;97345.13;;;8.24;89.53
5609;BME280;2826;51.354;9.588;2023-04-15T07:53:59;97341.84;;;8.20;89.72
5609;BME280;2826;51.354;9.588;2023-04-15T07:56:27;97341.34;;;8.12;90.07
5609;BME280;2826;51.354;9.588;2023-04-15T07:58:56;97338.81;;;8.10;89.94
5609;BME280;2826;51.354;9.588;2023-04-15T08:01:25;97349.66;;;7.98;90.74
5609;BME280;2826;51.354;9.588;2023-04-15T08:03:57;97345.88;;;8.07;90.31
5609;BME280;2826;51.354;9.588;2023-04-15T08:06:30;97334.75;;;8.05;90.71
5609;BME280;2826;51.354;9.588;2023-04-15T08:09:04;97337.78;;;7.94;91.49
5609;BME280;2826;51.354;9.588;2023-04-15T08:11:34;97340.00;;;8.03;91.12
5609;BME280;2826;51.354;9.588;2023-04-15T08:14:07;97347.25;;;8.14;90.83
5609;BME280;2826;51.354;9.588;2023-04-15T08:16:38;97346.78;;;8.06;90.76
5609;BME280;2826;51.354;9.588;2023-04-15T08:19:08;97344.91;;;8.09;91.14
5609;BME280;2826;51.354;9.588;2023-04-15T08:21:35;97342.31;;;8.09;91.40
5609;BME280;2826;51.354;9.588;2023-04-15T08:24:03;97345.66;;;8.11;90.80
5609;BME280;2826;51.354;9.588;2023-04-15T08:26:32;97346.50;;;8.12;90.92
5609;BME280;2826;51.354;9.588;2023-04-15T08:29:01;97343.00;;;8.13;91.32
5609;BME280;2826;51.354;9.588;2023-04-15T08:31:29;97351.66;;;8.12;91.09
5609;BME280;2826;51.354;9.588;2023-04-15T08:33:57;97349.16;;;8.10;91.29
5609;BME280;2826;51.354;9.588;2023-04-15T08:36:26;97344.31;;;8.03;91.97
5609;BME280;2826;51.354;9.588;2023-04-15T08:38:54;97341.28;;;8.14;91.58
5609;BME280;2826;51.354;9.588;2023-04-15T08:41:24;97340.25;;;8.18;91.36
5609;BME280;2826;51.354;9.588;2023-04-15T08:43:55;97318.44;;;7.83;92.15
5609;BME280;2826;51.354;9.588;2023-04-15T08:46:24;97354.72;;;8.01;92.63
5609;BME280;2826;51.354;9.588;2023-04-15T08:48:51;97354.81;;;7.98;92.93
5609;BME280;2826;51.354;9.588;2023-04-15T08:51:21;97354.38;;;8.09;92.76
5609;BME280;2826;51.354;9.588;2023-04-15T08:53:52;97346.56;;;8.10;92.79
5609;BME280;2826;51.354;9.588;2023-04-15T08:56:23;97352.97;;;8.02;93.15
5609;BME280;2826;51.354;9.588;2023-04-15T08:58:52;97359.88;;;8.01;93.19
5609;BME280;2826;51.354;9.588;2023-04-15T09:01:20;97360.84;;;7.98;93.12
5609;BME280;2826;51.354;9.588;2023-04-15T09:03:48;97363.94;;;8.07;93.55
5609;BME280;2826;51.354;9.588;2023-04-15T09:06:16;97364.19;;;8.01;93.37
5609;BME280;2826;51.354;9.588;2023-04-15T09:08:43;97360.78;;;8.00;93.62
5609;BME280;2826;51.354;9.588;2023-04-15T09:11:13;97366.84;;;7.99;94.08
5609;BME280;2826;51.354;9.588;2023-04-15T09:13:40;97362.31;;;7.83;94.71
5609;BME280;2826;51.354;9.588;2023-04-15T09:16:07;97357.56;;;7.95;94.48
5609;BME280;2826;51.354;9.588;2023-04-15T09:18:35;97364.06;;;8.04;94.01
5609;BME280;2826;51.354;9.588;2023-04-15T09:21:06;97364.84;;;8.06;93.81
5609;BME280;2826;51.354;9.588;2023-04-15T09:23:35;97367.16;;;8.12;94.06
5609;BME280;2826;51.354;9.588;2023-04-15T09:26:03;97370.13;;;8.03;94.10
5609;BME280;2826;51.354;9.588;2023-04-15T09:28:32;97380.66;;;7.98;94.39
5609;BME280;2826;51.354;9.588;2023-04-15T09:31:02;97381.03;;;7.89;94.71
5609;BME280;2826;51.354;9.588;2023-04-15T09:33:29;97352.63;;;7.89;94.43
5609;BME280;2826;51.354;9.588;2023-04-15T09:35:59;97382.06;;;8.05;94.10
5609;BME280;2826;51.354;9.588;2023-04-15T09:38:27;97384.97;;;7.97;94.25
5609;BME280;2826;51.354;9.588;2023-04-15T09:40:54;97388.22;;;8.03;94.26
5609;BME280;2826;51.354;9.588;2023-04-15T09:43:22;97386.97;;;7.91;94.09
5609;BME280;2826;51.354;9.588;2023-04-15T09:45:52;97377.56;;;7.90;93.57
5609;BME280;2826;51.354;9.588;2023-04-15T09:48:21;97393.69;;;8.16;93.43
5609;BME280;2826;51.354;9.588;2023-04-15T09:50:48;97400.91;;;8.07;93.44
5609;BME280;2826;51.354;9.588;2023-04-15T09:53:16;97402.97;;;8.20;93.32
5609;BME280;2826;51.354;9.588;2023-04-15T09:55:45;97401.25;;;8.20;93.22
5609;BME280;2826;51.354;9.588;2023-04-15T09:58:17;97392.97;;;8.12;93.61
5609;BME280;2826;51.354;9.588;2023-04-15T10:00:46;97396.78;;;8.24;93.28
5609;BME280;2826;51.354;9.588;2023-04-15T10:03:17;97395.75;;;8.28;93.29
5609;BME280;2826;51.354;9.588;2023-04-15T10:05:46;97392.00;;;8.15;93.80
5609;BME280;2826;51.354;9.588;2023-04-15T10:08:15;97398.66;;;8.20;93.54
5609;BME280;2826;51.354;9.588;2023-04-15T10:10:45;97405.13;;;8.31;93.33
5609;BME280;2826;51.354;9.588;2023-04-15T10:13:16;97401.03;;;8.25;93.61
5609;BME280;2826;51.354;9.588;2023-04-15T10:15:49;97377.50;;;8.12;93.39
5609;BME280;2826;51.354;9.588;2023-04-15T10:18:20;97405.00;;;8.13;93.88
5609;BME280;2826;51.354;9.588;2023-04-15T10:20:50;97407.19;;;8.02;94.50
5609;BME280;2826;51.354;9.588;2023-04-15T10:23:19;97410.81;;;7.97;95.12
5609;BME280;2826;51.354;9.588;2023-04-15T10:25:48;97414.03;;;8.03;94.85
5609;BME280;2826;51.354;9.588;2023-04-15T10:28:15;97409.84;;;8.00;94.79
5609;BME280;2826;51.354;9.588;2023-04-15T10:30:43;97413.56;;;7.93;95.19
5609;BME280;2826;51.354;9.588;2023-04-15T10:33:11;97417.88;;;7.71;95.93
5609;BME280;2826;51.354;9.588;2023-04-15T10:35:40;97406.13;;;7.85;95.77
5609;BME280;2826;51.354;9.588;2023-04-15T10:38:34;97415.50;;;7.88;95.36
5609;BME280;2826;51.354;9.588;2023-04-15T10:41:17;97417.06;;;7.92;95.27
5609;BME280;2826;51.354;9.588;2023-04-15T10:43:48;97422.34;;;7.89;95.53
5609;BME280;2826;51.354;9.588;2023-04-15T10:46:18;97424.41;;;8.01;95.03
5609;BME280;2826;51.354;9.588;2023-04-15T10:48:48;97430.81;;;8.13;94.81
5609;BME280;2826;51.354;9.588;2023-04-15T10:51:25;97423.66;;;8.20;94.51
5609;BME280;2826;51.354;9.588;2023-04-15T10:53:58;97427.31;;;8.14;95.04
5609;BME280;2826;51.354;9.588;2023-04-15T10:56:30;97425.53;;;8.16;95.20
5609;BME280;2826;51.354;9.588;2023-04-15T10:59:04;97430.38;;;8.24;94.97
5609;BME280;2826;51.354;9.588;2023-04-15T11:01:53;97431.78;;;8.31;94.32
5609;BME280;2826;51.354;9.588;2023-04-15T11:04:53;97427.84;;;8.43;94.20
5609;BME280;2826;51.354;9.588;2023-04-15T11:07:38;97430.88;;;8.32;94.08
5609;BME280;2826;51.354;9.588;2023-04-15T11:13:21;97425.25;;;8.22;94.39
5609;BME280;2826;51.354;9.588;2023-04-15T11:15:53;97440.31;;;8.33;94.97
5609;BME280;2826;51.354;9.588;2023-04-15T11:18:26;97448.56;;;8.42;94.56
5609;BME280;2826;51.354;9.588;2023-04-15T11:20:55;97426.41;;;8.36;94.33
5609;BME280;2826;51.354;9.588;2023-04-15T11:23:35;97445.94;;;8.43;94.40
5609;BME280;2826;51.354;9.588;2023-04-15T11:26:04;97442.25;;;8.49;94.53
5609;BME280;2826;51.354;9.588;2023-04-15T11:28:35;97448.94;;;8.55;94.27
5609;BME280;2826;51.354;9.588;2023-04-15T11:31:07;97444.69;;;8.52;94.28
5609;BME280;2826;51.354;9.588;2023-04-15T11:33:36;97447.81;;;8.60;94.38
5609;BME280;2826;51.354;9.588;2023-04-15T11:36:04;97453.59;;;8.66;94.00
5609;BME280;2826;51.354;9.588;2023-04-15T11:38:33;97460.41;;;8.68;93.89
5609;BME280;2826;51.354;9.588;2023-04-15T11:41:01;97459.09;;;8.79;93.36
5609;BME280;2826;51.354;9.588;2023-04-15T11:43:31;97461.13;;;8.72;93.54
5609;BME280;2826;51.354;9.588;2023-04-15T11:46:00;97464.47;;;8.74;93.78
5609;BME280;2826;51.354;9.588;2023-04-15T11:48:28;97459.78;;;8.82;93.22
5609;BME280;2826;51.354;9.588;2023-04-15T11:50:59;97466.44;;;8.88;93.40
5609;BME280;2826;51.354;9.588;2023-04-15T11:53:36;97461.97;;;8.92;93.08
5609;BME280;2826;51.354;9.588;2023-04-15T11:56:05;97468.69;;;8.96;93.14
5609;BME280;2826;51.354;9.588;2023-04-15T11:58:34;97470.00;;;8.85;93.43
5609;BME280;2826;51.354;9.588;2023-04-15T12:01:03;97477.72;;;8.66;93.86
5609;BME280;2826;51.354;9.588;2023-04-15T12:03:36;97468.81;;;8.73;94.20
5609;BME280;2826;51.354;9.588;2023-04-15T12:06:11;97473.63;;;8.81;94.02
5609;BME280;2826;51.354;9.588;2023-04-15T12:09:02;97456.78;;;8.72;93.75
5609;BME280;2826;51.354;9.588;2023-04-15T12:11:41;97477.50;;;8.92;93.74
5609;BME280;2826;51.354;9.588;2023-04-15T12:14:11;97485.81;;;8.98;93.55
5609;BME280;2826;51.354;9.588;2023-04-15T12:16:40;97486.69;;;8.78;94.03
5609;BME280;2826;51.354;9.588;2023-04-15T12:19:10;97477.84;;;8.84;93.84
5609;BME280;2826;51.354;9.588;2023-04-15T12:21:43;97488.00;;;8.88;93.72
5609;BME280;2826;51.354;9.588;2023-04-15T12:24:12;97487.75;;;8.93;93.82
5609;BME280;2826;51.354;9.588;2023-04-15T12:26:45;97494.94;;;8.86;94.26
5609;BME280;2826;51.354;9.588;2023-04-15T12:29:15;97500.91;;;8.88;94.07
5609;BME280;2826;51.354;9.588;2023-04-15T12:31:47;97504.03;;;8.76;94.73
5609;BME280;2826;51.354;9.588;2023-04-15T12:34:17;97502.47;;;8.72;95.51
5609;BME280;2826;51.354;9.588;2023-04-15T12:36:46;97504.66;;;8.60;95.38
5609;BME280;2826;51.354;9.588;2023-04-15T12:39:21;97503.81;;;8.81;95.29
5609;BME280;2826;51.354;9.588;2023-04-15T12:41:50;97517.53;;;8.83;94.88
5609;BME280;2826;51.354;9.588;2023-04-15T12:44:17;97511.88;;;8.94;94.61
5609;BME280;2826;51.354;9.588;2023-04-15T12:46:45;97515.16;;;8.97;94.55
5609;BME280;2826;51.354;9.588;2023-04-15T12:49:12;97521.03;;;9.01;94.51
5609;BME280;2826;51.354;9.588;2023-04-15T12:51:41;97519.25;;;9.03;94.44
5609;BME280;2826;51.354;9.588;2023-04-15T12:54:09;97532.09;;;9.05;94.42
5609;BME280;2826;51.354;9.588;2023-04-15T12:56:37;97532.28;;;9.00;94.92
5609;BME280;2826;51.354;9.588;2023-04-15T12:59:04;97530.28;;;9.07;94.69
5609;BME280;2826;51.354;9.588;2023-04-15T13:01:32;97517.69;;;8.99;94.57
5609;BME280;2826;51.354;9.588;2023-04-15T13:04:00;97535.03;;;9.16;94.42
5609;BME280;2826;51.354;9.588;2023-04-15T13:06:28;97499.81;;;8.73;95.01
5609;BME280;2826;51.354;9.588;2023-04-15T13:08:55;97546.19;;;8.97;95.16
5609;BME280;2826;51.354;9.588;2023-04-15T13:11:22;97540.78;;;8.83;96.44
5609;BME280;2826;51.354;9.588;2023-04-15T13:13:49;97549.56;;;8.99;95.11
5609;BME280;2826;51.354;9.588;2023-04-15T13:16:18;97551.72;;;8.89;95.93
5609;BME280;2826;51.354;9.588;2023-04-15T13:18:48;97563.31;;;9.00;95.48
5609;BME280;2826;51.354;9.588;2023-04-15T13:21:16;97554.75;;;8.99;95.67
5609;BME280;2826;51.354;9.588;2023-04-15T13:23:46;97561.41;;;8.84;96.34
5609;BME280;2826;51.354;9.588;2023-04-15T13:26:15;97562.41;;;9.01;95.84
5609;BME280;2826;51.354;9.588;2023-04-15T13:28:45;97560.41;;;9.08;95.46
5609;BME280;2826;51.354;9.588;2023-04-15T13:31:14;97569.28;;;9.02;95.47
5609;BME280;2826;51.354;9.588;2023-04-15T13:33:42;97574.63;;;8.76;97.51
5609;BME280;2826;51.354;9.588;2023-04-15T13:36:09;97581.06;;;8.88;97.09
5609;BME280;2826;51.354;9.588;2023-04-15T13:38:37;97582.34;;;8.99;96.34
5609;BME280;2826;51.354;9.588;2023-04-15T13:41:05;97588.84;;;9.08;95.98
5609;BME280;2826;51.354;9.588;2023-04-15T13:43:33;97582.59;;;9.13;95.52
5609;BME280;2826;51.354;9.588;2023-04-15T13:46:01;97582.13;;;9.04;96.02